sensor_id;sensor_type;location;lat;lon;timestamp;P1;durP1;ratioP1;P2;durP2;ratioP2
26690;SDS011;14307;51.718;8.938;2022-10-18T00:00:04;16.85;;;13.27;;
26690;SDS011;14307;51.718;8.938;2022-10-18T00:02:36;24.42;;;13.60;;
26690;SDS011;14307;51.718;8.938;2022-10-18T00:05:03;22.52;;;13.50;;
26690;SDS011;14307;51.718;8.938;2022-10-18T00:07:30;19.90;;;13.15;;
26690;SDS011;14307;51.718;8.938;2022-10-18T00:09:57;14.98;;;13.43;;
26690;SDS011;14307;51.718;8.938;2022-10-18T00:12:24;23.38;;;13.48;;
26690;SDS011;14307;51.718;8.938;2022-10-18T00:14:51;13.98;;;12.57;;
26690;SDS011;14307;51.718;8.938;2022-10-18T00:17:17;14.23;;;12.25;;
26690;SDS011;14307;51.718;8.938;2022-10-18T00:19:44;22.05;;;14.75;;
26690;SDS011;14307;51.718;8.938;2022-10-18T00:22:11;48.83;;;22.25;;
26690;SDS011;14307;51.718;8.938;2022-10-18T00:24:38;47.63;;;24.05;;
26690;SDS011;14307;51.718;8.938;2022-10-18T00:27:05;34.22;;;19.70;;
26690;SDS011;14307;51.718;8.938;2022-10-18T00:29:32;22.13;;;16.23;;
26690;SDS011;14307;51.718;8.938;2022-10-18T00:31:58;28.77;;;16.65;;
26690;SDS011;14307;51.718;8.938;2022-10-18T00:34:25;20.83;;;14.70;;
26690;SDS011;14307;51.718;8.938;2022-10-18T00:36:52;26.48;;;16.65;;
26690;SDS011;14307;51.718;8.938;2022-10-18T00:39:20;21.83;;;16.63;;
26690;SDS011;14307;51.718;8.938;2022-10-18T00:41:47;22.67;;;16.17;;
26690;SDS011;14307;51.718;8.938;2022-10-18T00:46:42;27.13;;;18.10;;
26690;SDS011;14307;51.718;8.938;2022-10-18T00:49:16;28.60;;;17.95;;
26690;SDS011;14307;51.718;8.938;2022-10-18T00:52:07;23.27;;;17.48;;
26690;SDS011;14307;51.718;8.938;2022-10-18T00:54:35;29.30;;;18.25;;
26690;SDS011;14307;51.718;8.938;2022-10-18T00:57:04;28.63;;;19.23;;
26690;SDS011;14307;51.718;8.938;2022-10-18T00:59:32;24.85;;;18.42;;
26690;SDS011;14307;51.718;8.938;2022-10-18T01:01:59;27.60;;;18.17;;
26690;SDS011;14307;51.718;8.938;2022-10-18T01:04:26;29.48;;;20.33;;
26690;SDS011;14307;51.718;8.938;2022-10-18T01:09:31;32.35;;;21.35;;
26690;SDS011;14307;51.718;8.938;2022-10-18T01:12:18;32.95;;;22.13;;
26690;SDS011;14307;51.718;8.938;2022-10-18T01:29:23;40.83;;;25.17;;
26690;SDS011;14307;51.718;8.938;2022-10-18T01:32:10;35.60;;;23.30;;
26690;SDS011;14307;51.718;8.938;2022-10-18T01:34:42;45.53;;;24.95;;
26690;SDS011;14307;51.718;8.938;2022-10-18T01:37:12;38.67;;;23.45;;
26690;SDS011;14307;51.718;8.938;2022-10-18T01:39:43;42.15;;;25.38;;
26690;SDS011;14307;51.718;8.938;2022-10-18T01:42:12;43.58;;;24.02;;
26690;SDS011;14307;51.718;8.938;2022-10-18T01:44:43;43.28;;;24.98;;
26690;SDS011;14307;51.718;8.938;2022-10-18T01:47:12;51.85;;;26.45;;
26690;SDS011;14307;51.718;8.938;2022-10-18T01:49:40;53.72;;;28.63;;
26690;SDS011;14307;51.718;8.938;2022-10-18T01:52:13;52.35;;;28.13;;
26690;SDS011;14307;51.718;8.938;2022-10-18T01:54:42;41.57;;;23.77;;
26690;SDS011;14307;51.718;8.938;2022-10-18T01:57:23;44.08;;;22.27;;
26690;SDS011;14307;51.718;8.938;2022-10-18T02:08:10;34.80;;;19.45;;
26690;SDS011;14307;51.718;8.938;2022-10-18T02:11:02;35.33;;;18.90;;
26690;SDS011;14307;51.718;8.938;2022-10-18T02:13:39;36.80;;;20.08;;
26690;SDS011;14307;51.718;8.938;2022-10-18T02:16:16;47.38;;;19.88;;
26690;SDS011;14307;51.718;8.938;2022-10-18T02:18:54;39.50;;;19.17;;
26690;SDS011;14307;51.718;8.938;2022-10-18T02:21:24;37.33;;;19.73;;
26690;SDS011;14307;51.718;8.938;2022-10-18T02:23:52;37.10;;;17.58;;
26690;SDS011;14307;51.718;8.938;2022-10-18T02:26:21;40.65;;;18.85;;
26690;SDS011;14307;51.718;8.938;2022-10-18T02:28:48;40.35;;;19.60;;
26690;SDS011;14307;51.718;8.938;2022-10-18T02:31:26;44.50;;;19.42;;
26690;SDS011;14307;51.718;8.938;2022-10-18T02:36:41;43.63;;;19.85;;
26690;SDS011;14307;51.718;8.938;2022-10-18T02:39:12;38.40;;;19.73;;
26690;SDS011;14307;51.718;8.938;2022-10-18T02:41:42;44.33;;;20.30;;
26690;SDS011;14307;51.718;8.938;2022-10-18T02:44:09;47.60;;;21.20;;
26690;SDS011;14307;51.718;8.938;2022-10-18T02:46:36;45.42;;;20.73;;
26690;SDS011;14307;51.718;8.938;2022-10-18T02:49:05;44.05;;;21.35;;
26690;SDS011;14307;51.718;8.938;2022-10-18T02:51:32;47.72;;;22.77;;
26690;SDS011;14307;51.718;8.938;2022-10-18T02:53:59;53.00;;;21.20;;
26690;SDS011;14307;51.718;8.938;2022-10-18T02:56:25;45.20;;;21.52;;
26690;SDS011;14307;51.718;8.938;2022-10-18T02:58:52;53.13;;;23.23;;
26690;SDS011;14307;51.718;8.938;2022-10-18T03:01:18;60.65;;;23.92;;
26690;SDS011;14307;51.718;8.938;2022-10-18T03:03:45;49.20;;;21.65;;
26690;SDS011;14307;51.718;8.938;2022-10-18T03:06:13;53.88;;;22.90;;
26690;SDS011;14307;51.718;8.938;2022-10-18T03:08:40;54.42;;;22.98;;
26690;SDS011;14307;51.718;8.938;2022-10-18T03:11:07;54.15;;;23.45;;
26690;SDS011;14307;51.718;8.938;2022-10-18T03:13:33;48.92;;;22.23;;
26690;SDS011;14307;51.718;8.938;2022-10-18T03:16:00;57.40;;;23.75;;
26690;SDS011;14307;51.718;8.938;2022-10-18T03:18:27;56.53;;;23.25;;
26690;SDS011;14307;51.718;8.938;2022-10-18T03:20:54;58.47;;;23.33;;
26690;SDS011;14307;51.718;8.938;2022-10-18T03:23:21;54.03;;;23.10;;
26690;SDS011;14307;51.718;8.938;2022-10-18T03:25:47;58.05;;;23.42;;
26690;SDS011;14307;51.718;8.938;2022-10-18T03:28:14;47.88;;;22.77;;
26690;SDS011;14307;51.718;8.938;2022-10-18T03:30:41;52.72;;;23.92;;
26690;SDS011;14307;51.718;8.938;2022-10-18T03:33:07;49.75;;;22.73;;
26690;SDS011;14307;51.718;8.938;2022-10-18T03:35:34;45.72;;;23.05;;
26690;SDS011;14307;51.718;8.938;2022-10-18T03:38:01;58.25;;;24.67;;
26690;SDS011;14307;51.718;8.938;2022-10-18T03:40:27;63.22;;;24.80;;
26690;SDS011;14307;51.718;8.938;2022-10-18T03:42:57;55.13;;;24.75;;
26690;SDS011;14307;51.718;8.938;2022-10-18T03:45:24;52.08;;;23.85;;
26690;SDS011;14307;51.718;8.938;2022-10-18T03:47:56;49.45;;;23.05;;
26690;SDS011;14307;51.718;8.938;2022-10-18T03:50:23;48.03;;;23.27;;
26690;SDS011;14307;51.718;8.938;2022-10-18T03:52:49;52.67;;;24.00;;
26690;SDS011;14307;51.718;8.938;2022-10-18T03:55:16;57.00;;;22.60;;
26690;SDS011;14307;51.718;8.938;2022-10-18T03:57:43;57.65;;;23.55;;
26690;SDS011;14307;51.718;8.938;2022-10-18T04:00:09;61.78;;;27.10;;
26690;SDS011;14307;51.718;8.938;2022-10-18T04:02:37;56.00;;;25.42;;
26690;SDS011;14307;51.718;8.938;2022-10-18T04:05:04;54.67;;;26.33;;
26690;SDS011;14307;51.718;8.938;2022-10-18T04:07:33;53.83;;;23.20;;
26690;SDS011;14307;51.718;8.938;2022-10-18T04:10:05;67.65;;;24.80;;
26690;SDS011;14307;51.718;8.938;2022-10-18T04:12:32;62.70;;;26.23;;
26690;SDS011;14307;51.718;8.938;2022-10-18T04:14:59;48.08;;;23.95;;
26690;SDS011;14307;51.718;8.938;2022-10-18T04:17:26;57.67;;;24.23;;
26690;SDS011;14307;51.718;8.938;2022-10-18T04:19:53;55.95;;;23.60;;
26690;SDS011;14307;51.718;8.938;2022-10-18T04:22:19;52.10;;;24.30;;
26690;SDS011;14307;51.718;8.938;2022-10-18T04:24:46;53.45;;;22.48;;
26690;SDS011;14307;51.718;8.938;2022-10-18T04:27:13;46.85;;;21.55;;
26690;SDS011;14307;51.718;8.938;2022-10-18T04:29:40;47.53;;;20.92;;
26690;SDS011;14307;51.718;8.938;2022-10-18T04:32:06;53.90;;;20.98;;
26690;SDS011;14307;51.718;8.938;2022-10-18T04:34:33;53.08;;;21.35;;
26690;SDS011;14307;51.718;8.938;2022-10-18T04:37:00;48.22;;;20.30;;
26690;SDS011;14307;51.718;8.938;2022-10-18T04:39:26;47.28;;;20.58;;
26690;SDS011;14307;51.718;8.938;2022-10-18T04:41:53;54.13;;;20.83;;
26690;SDS011;14307;51.718;8.938;2022-10-18T04:44:20;61.72;;;22.38;;
26690;SDS011;14307;51.718;8.938;2022-10-18T04:46:47;46.60;;;20.73;;
26690;SDS011;14307;51.718;8.938;2022-10-18T04:49:13;48.83;;;21.70;;
26690;SDS011;14307;51.718;8.938;2022-10-18T04:51:40;53.45;;;22.00;;
26690;SDS011;14307;51.718;8.938;2022-10-18T04:54:07;60.33;;;22.75;;
26690;SDS011;14307;51.718;8.938;2022-10-18T04:56:34;52.92;;;25.38;;
26690;SDS011;14307;51.718;8.938;2022-10-18T04:59:00;60.88;;;24.80;;
26690;SDS011;14307;51.718;8.938;2022-10-18T05:01:27;52.63;;;20.88;;
26690;SDS011;14307;51.718;8.938;2022-10-18T05:03:54;51.00;;;21.95;;
26690;SDS011;14307;51.718;8.938;2022-10-18T05:06:21;58.25;;;22.25;;
26690;SDS011;14307;51.718;8.938;2022-10-18T05:08:50;53.65;;;21.73;;
26690;SDS011;14307;51.718;8.938;2022-10-18T05:11:17;46.75;;;22.58;;
26690;SDS011;14307;51.718;8.938;2022-10-18T05:13:44;49.50;;;21.45;;
26690;SDS011;14307;51.718;8.938;2022-10-18T05:16:15;57.95;;;23.75;;
26690;SDS011;14307;51.718;8.938;2022-10-18T05:18:41;48.38;;;22.33;;
26690;SDS011;14307;51.718;8.938;2022-10-18T05:21:08;47.58;;;22.15;;
26690;SDS011;14307;51.718;8.938;2022-10-18T05:23:35;51.60;;;22.60;;
26690;SDS011;14307;51.718;8.938;2022-10-18T05:26:02;57.92;;;22.77;;
26690;SDS011;14307;51.718;8.938;2022-10-18T05:28:31;57.53;;;22.58;;
26690;SDS011;14307;51.718;8.938;2022-10-18T05:31:06;58.63;;;23.48;;
26690;SDS011;14307;51.718;8.938;2022-10-18T05:33:34;50.97;;;22.10;;
26690;SDS011;14307;51.718;8.938;2022-10-18T05:36:01;48.22;;;23.35;;
26690;SDS011;14307;51.718;8.938;2022-10-18T05:38:28;48.22;;;21.13;;
26690;SDS011;14307;51.718;8.938;2022-10-18T05:40:58;53.03;;;23.02;;
26690;SDS011;14307;51.718;8.938;2022-10-18T05:43:28;53.35;;;23.30;;
26690;SDS011;14307;51.718;8.938;2022-10-18T05:45:54;52.08;;;23.10;;
26690;SDS011;14307;51.718;8.938;2022-10-18T05:48:21;48.45;;;21.80;;
26690;SDS011;14307;51.718;8.938;2022-10-18T05:50:48;65.70;;;23.85;;
26690;SDS011;14307;51.718;8.938;2022-10-18T05:53:15;50.75;;;21.58;;
26690;SDS011;14307;51.718;8.938;2022-10-18T05:56:02;53.28;;;22.80;;
26690;SDS011;14307;51.718;8.938;2022-10-18T05:58:29;63.65;;;21.88;;
26690;SDS011;14307;51.718;8.938;2022-10-18T06:00:59;43.35;;;20.65;;
26690;SDS011;14307;51.718;8.938;2022-10-18T06:03:27;58.90;;;23.02;;
26690;SDS011;14307;51.718;8.938;2022-10-18T06:06:06;58.63;;;24.02;;
26690;SDS011;14307;51.718;8.938;2022-10-18T06:08:35;73.45;;;23.63;;
26690;SDS011;14307;51.718;8.938;2022-10-18T06:11:06;62.75;;;22.92;;
26690;SDS011;14307;51.718;8.938;2022-10-18T06:13:38;74.93;;;25.98;;
26690;SDS011;14307;51.718;8.938;2022-10-18T06:16:10;61.35;;;23.83;;
26690;SDS011;14307;51.718;8.938;2022-10-18T06:18:38;67.03;;;25.63;;
26690;SDS011;14307;51.718;8.938;2022-10-18T06:21:05;63.25;;;23.88;;
26690;SDS011;14307;51.718;8.938;2022-10-18T06:23:32;66.32;;;24.00;;
26690;SDS011;14307;51.718;8.938;2022-10-18T06:26:00;49.78;;;21.23;;
26690;SDS011;14307;51.718;8.938;2022-10-18T06:28:28;58.22;;;23.67;;
26690;SDS011;14307;51.718;8.938;2022-10-18T06:30:56;62.58;;;23.80;;
26690;SDS011;14307;51.718;8.938;2022-10-18T06:33:23;55.42;;;22.67;;
26690;SDS011;14307;51.718;8.938;2022-10-18T06:36:00;51.97;;;23.02;;
26690;SDS011;14307;51.718;8.938;2022-10-18T06:38:28;47.13;;;22.20;;
26690;SDS011;14307;51.718;8.938;2022-10-18T06:40:55;56.08;;;23.05;;
26690;SDS011;14307;51.718;8.938;2022-10-18T06:43:23;77.30;;;24.88;;
26690;SDS011;14307;51.718;8.938;2022-10-18T06:45:50;68.55;;;25.75;;
26690;SDS011;14307;51.718;8.938;2022-10-18T06:48:18;73.90;;;25.38;;
26690;SDS011;14307;51.718;8.938;2022-10-18T06:50:55;76.32;;;26.15;;
26690;SDS011;14307;51.718;8.938;2022-10-18T06:53:28;63.92;;;23.88;;
26690;SDS011;14307;51.718;8.938;2022-10-18T06:56:00;58.53;;;23.33;;
26690;SDS011;14307;51.718;8.938;2022-10-18T06:58:29;62.25;;;22.83;;
26690;SDS011;14307;51.718;8.938;2022-10-18T07:00:56;67.05;;;24.17;;
26690;SDS011;14307;51.718;8.938;2022-10-18T07:03:23;65.40;;;24.98;;
26690;SDS011;14307;51.718;8.938;2022-10-18T07:05:50;74.35;;;24.55;;
26690;SDS011;14307;51.718;8.938;2022-10-18T07:08:17;61.85;;;24.33;;
26690;SDS011;14307;51.718;8.938;2022-10-18T07:10:53;56.85;;;23.88;;
26690;SDS011;14307;51.718;8.938;2022-10-18T07:13:20;51.38;;;22.98;;
26690;SDS011;14307;51.718;8.938;2022-10-18T07:16:04;58.97;;;24.80;;
26690;SDS011;14307;51.718;8.938;2022-10-18T07:18:32;65.43;;;23.27;;
26690;SDS011;14307;51.718;8.938;2022-10-18T07:21:00;54.10;;;23.35;;
26690;SDS011;14307;51.718;8.938;2022-10-18T07:23:28;52.95;;;23.58;;
26690;SDS011;14307;51.718;8.938;2022-10-18T07:25:57;56.92;;;24.10;;
26690;SDS011;14307;51.718;8.938;2022-10-18T07:28:24;69.82;;;25.58;;
26690;SDS011;14307;51.718;8.938;2022-10-18T07:30:50;75.57;;;26.95;;
26690;SDS011;14307;51.718;8.938;2022-10-18T07:33:17;64.18;;;24.98;;
26690;SDS011;14307;51.718;8.938;2022-10-18T07:35:46;63.92;;;25.38;;
26690;SDS011;14307;51.718;8.938;2022-10-18T07:38:13;63.15;;;26.63;;
26690;SDS011;14307;51.718;8.938;2022-10-18T07:40:39;58.88;;;25.80;;
26690;SDS011;14307;51.718;8.938;2022-10-18T07:43:06;54.83;;;23.70;;
26690;SDS011;14307;51.718;8.938;2022-10-18T07:45:37;58.05;;;24.95;;
26690;SDS011;14307;51.718;8.938;2022-10-18T07:48:03;48.95;;;22.13;;
26690;SDS011;14307;51.718;8.938;2022-10-18T07:50:30;53.42;;;23.75;;
26690;SDS011;14307;51.718;8.938;2022-10-18T07:52:57;41.63;;;21.05;;
26690;SDS011;14307;51.718;8.938;2022-10-18T07:55:24;38.78;;;20.05;;
26690;SDS011;14307;51.718;8.938;2022-10-18T07:57:50;46.05;;;21.10;;
26690;SDS011;14307;51.718;8.938;2022-10-18T08:00:17;44.47;;;21.90;;
26690;SDS011;14307;51.718;8.938;2022-10-18T08:02:44;48.90;;;22.92;;
26690;SDS011;14307;51.718;8.938;2022-10-18T08:05:10;46.17;;;23.00;;
26690;SDS011;14307;51.718;8.938;2022-10-18T08:07:37;42.53;;;23.10;;
26690;SDS011;14307;51.718;8.938;2022-10-18T08:10:04;44.88;;;24.65;;
26690;SDS011;14307;51.718;8.938;2022-10-18T08:12:31;49.45;;;29.00;;
26690;SDS011;14307;51.718;8.938;2022-10-18T08:14:58;48.65;;;28.42;;
26690;SDS011;14307;51.718;8.938;2022-10-18T08:17:24;44.28;;;26.90;;
26690;SDS011;14307;51.718;8.938;2022-10-18T08:19:51;49.17;;;27.25;;
26690;SDS011;14307;51.718;8.938;2022-10-18T08:22:37;43.47;;;23.65;;
26690;SDS011;14307;51.718;8.938;2022-10-18T08:25:04;38.22;;;23.67;;
26690;SDS011;14307;51.718;8.938;2022-10-18T08:27:31;42.47;;;23.13;;
26690;SDS011;14307;51.718;8.938;2022-10-18T08:29:58;45.08;;;25.35;;
26690;SDS011;14307;51.718;8.938;2022-10-18T08:34:57;49.72;;;27.23;;
26690;SDS011;14307;51.718;8.938;2022-10-18T08:37:24;45.92;;;26.35;;
26690;SDS011;14307;51.718;8.938;2022-10-18T08:39:51;47.55;;;28.83;;
26690;SDS011;14307;51.718;8.938;2022-10-18T08:42:39;48.05;;;26.27;;
26690;SDS011;14307;51.718;8.938;2022-10-18T08:45:17;46.20;;;24.50;;
26690;SDS011;14307;51.718;8.938;2022-10-18T08:48:05;47.20;;;26.33;;
26690;SDS011;14307;51.718;8.938;2022-10-18T08:50:34;54.83;;;27.67;;
26690;SDS011;14307;51.718;8.938;2022-10-18T08:58:21;58.00;;;27.67;;
26690;SDS011;14307;51.718;8.938;2022-10-18T09:06:31;66.95;;;30.67;;
26690;SDS011;14307;51.718;8.938;2022-10-18T09:09:20;61.15;;;31.15;;
26690;SDS011;14307;51.718;8.938;2022-10-18T09:17:46;76.20;;;39.22;;
26690;SDS011;14307;51.718;8.938;2022-10-18T09:20:21;58.53;;;32.08;;
26690;SDS011;14307;51.718;8.938;2022-10-18T09:22:52;59.80;;;31.83;;
26690;SDS011;14307;51.718;8.938;2022-10-18T09:25:24;47.92;;;27.08;;
26690;SDS011;14307;51.718;8.938;2022-10-18T09:30:44;44.33;;;28.77;;
26690;SDS011;14307;51.718;8.938;2022-10-18T09:36:00;47.05;;;28.13;;
26690;SDS011;14307;51.718;8.938;2022-10-18T09:38:50;44.95;;;27.65;;
26690;SDS011;14307;51.718;8.938;2022-10-18T09:41:26;41.80;;;27.67;;
26690;SDS011;14307;51.718;8.938;2022-10-18T09:43:59;47.40;;;29.50;;
26690;SDS011;14307;51.718;8.938;2022-10-18T09:46:32;49.27;;;31.07;;
26690;SDS011;14307;51.718;8.938;2022-10-18T09:49:04;56.95;;;32.97;;
26690;SDS011;14307;51.718;8.938;2022-10-18T09:51:41;48.40;;;30.25;;
26690;SDS011;14307;51.718;8.938;2022-10-18T09:59:34;61.00;;;31.58;;
26690;SDS011;14307;51.718;8.938;2022-10-18T10:02:01;60.25;;;31.80;;
26690;SDS011;14307;51.718;8.938;2022-10-18T10:04:28;62.38;;;34.33;;
26690;SDS011;14307;51.718;8.938;2022-10-18T10:06:56;64.90;;;33.95;;
26690;SDS011;14307;51.718;8.938;2022-10-18T10:09:28;63.08;;;31.88;;
26690;SDS011;14307;51.718;8.938;2022-10-18T10:12:27;65.25;;;31.65;;
26690;SDS011;14307;51.718;8.938;2022-10-18T10:15:06;65.90;;;32.63;;
26690;SDS011;14307;51.718;8.938;2022-10-18T10:17:58;61.38;;;31.25;;
26690;SDS011;14307;51.718;8.938;2022-10-18T10:20:49;68.93;;;35.92;;
26690;SDS011;14307;51.718;8.938;2022-10-18T10:23:38;64.38;;;33.38;;
26690;SDS011;14307;51.718;8.938;2022-10-18T10:26:21;77.05;;;38.20;;
26690;SDS011;14307;51.718;8.938;2022-10-18T10:28:50;70.45;;;36.22;;
26690;SDS011;14307;51.718;8.938;2022-10-18T10:33:57;75.18;;;38.92;;
26690;SDS011;14307;51.718;8.938;2022-10-18T10:36:24;74.63;;;39.38;;
26690;SDS011;14307;51.718;8.938;2022-10-18T10:41:32;73.18;;;41.03;;
26690;SDS011;14307;51.718;8.938;2022-10-18T10:44:00;82.25;;;41.72;;
26690;SDS011;14307;51.718;8.938;2022-10-18T10:46:34;71.85;;;39.67;;
26690;SDS011;14307;51.718;8.938;2022-10-18T10:49:01;76.80;;;40.15;;
26690;SDS011;14307;51.718;8.938;2022-10-18T10:51:53;78.55;;;41.97;;
26690;SDS011;14307;51.718;8.938;2022-10-18T10:54:34;78.72;;;41.33;;
26690;SDS011;14307;51.718;8.938;2022-10-18T10:57:05;81.65;;;45.70;;
26690;SDS011;14307;51.718;8.938;2022-10-18T10:59:46;88.53;;;46.08;;
26690;SDS011;14307;51.718;8.938;2022-10-18T11:04:44;76.55;;;41.15;;
26690;SDS011;14307;51.718;8.938;2022-10-18T11:07:30;76.95;;;42.45;;
26690;SDS011;14307;51.718;8.938;2022-10-18T11:10:07;82.95;;;43.45;;
26690;SDS011;14307;51.718;8.938;2022-10-18T11:12:40;82.07;;;42.35;;
26690;SDS011;14307;51.718;8.938;2022-10-18T11:15:30;67.00;;;39.22;;
26690;SDS011;14307;51.718;8.938;2022-10-18T11:18:09;76.90;;;41.15;;
26690;SDS011;14307;51.718;8.938;2022-10-18T11:20:59;77.40;;;44.65;;
26690;SDS011;14307;51.718;8.938;2022-10-18T11:23:37;76.65;;;43.58;;
26690;SDS011;14307;51.718;8.938;2022-10-18T11:28:44;85.28;;;45.38;;
26690;SDS011;14307;51.718;8.938;2022-10-18T11:31:24;78.60;;;41.75;;
26690;SDS011;14307;51.718;8.938;2022-10-18T11:40:00;56.67;;;37.15;;
26690;SDS011;14307;51.718;8.938;2022-10-18T11:48:25;58.20;;;39.05;;
26690;SDS011;14307;51.718;8.938;2022-10-18T11:50:59;61.70;;;42.85;;
26690;SDS011;14307;51.718;8.938;2022-10-18T11:54:03;59.65;;;42.35;;
26690;SDS011;14307;51.718;8.938;2022-10-18T11:59:44;59.50;;;40.72;;
26690;SDS011;14307;51.718;8.938;2022-10-18T12:05:15;58.63;;;42.10;;
26690;SDS011;14307;51.718;8.938;2022-10-18T12:08:02;60.92;;;40.95;;
26690;SDS011;14307;51.718;8.938;2022-10-18T12:10:33;65.05;;;42.25;;
26690;SDS011;14307;51.718;8.938;2022-10-18T12:13:24;60.85;;;41.75;;
26690;SDS011;14307;51.718;8.938;2022-10-18T12:16:01;55.03;;;39.20;;
26690;SDS011;14307;51.718;8.938;2022-10-18T12:18:29;57.63;;;40.05;;
26690;SDS011;14307;51.718;8.938;2022-10-18T12:20:58;53.40;;;37.00;;
26690;SDS011;14307;51.718;8.938;2022-10-18T12:23:33;56.90;;;39.63;;
26690;SDS011;14307;51.718;8.938;2022-10-18T12:26:10;54.93;;;40.87;;
26690;SDS011;14307;51.718;8.938;2022-10-18T12:31:25;55.53;;;39.95;;
26690;SDS011;14307;51.718;8.938;2022-10-18T12:39:24;55.35;;;39.53;;
26690;SDS011;14307;51.718;8.938;2022-10-18T12:42:30;56.00;;;42.95;;
26690;SDS011;14307;51.718;8.938;2022-10-18T12:45:01;58.45;;;42.38;;
26690;SDS011;14307;51.718;8.938;2022-10-18T12:47:43;56.08;;;42.28;;
26690;SDS011;14307;51.718;8.938;2022-10-18T12:55:45;62.80;;;43.70;;
26690;SDS011;14307;51.718;8.938;2022-10-18T13:16:50;61.00;;;45.25;;
26690;SDS011;14307;51.718;8.938;2022-10-18T13:28:16;56.03;;;43.80;;
26690;SDS011;14307;51.718;8.938;2022-10-18T13:33:45;60.58;;;44.53;;
26690;SDS011;14307;51.718;8.938;2022-10-18T13:39:02;69.47;;;45.13;;
26690;SDS011;14307;51.718;8.938;2022-10-18T13:41:31;57.35;;;43.22;;
26690;SDS011;14307;51.718;8.938;2022-10-18T13:44:25;50.70;;;40.50;;
26690;SDS011;14307;51.718;8.938;2022-10-18T13:52:24;51.97;;;37.83;;
26690;SDS011;14307;51.718;8.938;2022-10-18T13:58:10;58.63;;;39.95;;
26690;SDS011;14307;51.718;8.938;2022-10-18T14:00:49;60.00;;;42.08;;
26690;SDS011;14307;51.718;8.938;2022-10-18T14:03:34;56.53;;;40.17;;
26690;SDS011;14307;51.718;8.938;2022-10-18T14:06:33;52.08;;;39.03;;
26690;SDS011;14307;51.718;8.938;2022-10-18T14:12:13;40.65;;;33.63;;
26690;SDS011;14307;51.718;8.938;2022-10-18T14:14:56;39.60;;;34.05;;
26690;SDS011;14307;51.718;8.938;2022-10-18T14:20:22;38.38;;;31.83;;
26690;SDS011;14307;51.718;8.938;2022-10-18T14:23:26;42.17;;;31.85;;
26690;SDS011;14307;51.718;8.938;2022-10-18T14:26:12;39.45;;;32.22;;
26690;SDS011;14307;51.718;8.938;2022-10-18T14:28:40;39.13;;;31.67;;
26690;SDS011;14307;51.718;8.938;2022-10-18T14:31:25;36.50;;;30.80;;
26690;SDS011;14307;51.718;8.938;2022-10-18T14:33:52;36.88;;;31.25;;
26690;SDS011;14307;51.718;8.938;2022-10-18T14:36:29;32.63;;;28.88;;
26690;SDS011;14307;51.718;8.938;2022-10-18T14:39:03;31.67;;;28.38;;
26690;SDS011;14307;51.718;8.938;2022-10-18T14:41:35;30.73;;;27.08;;
26690;SDS011;14307;51.718;8.938;2022-10-18T14:49:11;31.65;;;28.05;;
26690;SDS011;14307;51.718;8.938;2022-10-18T14:51:39;30.25;;;27.30;;
26690;SDS011;14307;51.718;8.938;2022-10-18T14:54:30;28.85;;;26.25;;
26690;SDS011;14307;51.718;8.938;2022-10-18T14:56:59;31.15;;;27.17;;
26690;SDS011;14307;51.718;8.938;2022-10-18T14:59:27;29.83;;;26.88;;
26690;SDS011;14307;51.718;8.938;2022-10-18T15:01:58;30.52;;;27.52;;
26690;SDS011;14307;51.718;8.938;2022-10-18T15:04:30;30.95;;;28.15;;
26690;SDS011;14307;51.718;8.938;2022-10-18T15:07:06;33.63;;;29.08;;
26690;SDS011;14307;51.718;8.938;2022-10-18T15:09:39;35.70;;;29.13;;
26690;SDS011;14307;51.718;8.938;2022-10-18T15:12:07;33.10;;;29.15;;
26690;SDS011;14307;51.718;8.938;2022-10-18T15:14:37;38.92;;;30.13;;
26690;SDS011;14307;51.718;8.938;2022-10-18T15:17:19;33.72;;;30.08;;
26690;SDS011;14307;51.718;8.938;2022-10-18T15:19:57;33.38;;;29.65;;
26690;SDS011;14307;51.718;8.938;2022-10-18T15:22:43;33.40;;;28.70;;
26690;SDS011;14307;51.718;8.938;2022-10-18T15:27:51;36.25;;;29.95;;
26690;SDS011;14307;51.718;8.938;2022-10-18T15:30:24;31.65;;;28.35;;
26690;SDS011;14307;51.718;8.938;2022-10-18T15:33:02;32.55;;;28.70;;
26690;SDS011;14307;51.718;8.938;2022-10-18T15:35:35;29.67;;;26.83;;
26690;SDS011;14307;51.718;8.938;2022-10-18T15:38:21;34.72;;;28.02;;
26690;SDS011;14307;51.718;8.938;2022-10-18T15:40:54;31.83;;;28.67;;
26690;SDS011;14307;51.718;8.938;2022-10-18T15:45:57;31.65;;;28.17;;
26690;SDS011;14307;51.718;8.938;2022-10-18T15:48:38;30.92;;;27.95;;
26690;SDS011;14307;51.718;8.938;2022-10-18T15:51:06;32.58;;;29.02;;
26690;SDS011;14307;51.718;8.938;2022-10-18T15:53:45;31.45;;;28.13;;
26690;SDS011;14307;51.718;8.938;2022-10-18T15:56:31;32.80;;;29.30;;
26690;SDS011;14307;51.718;8.938;2022-10-18T15:59:11;33.35;;;29.35;;
26690;SDS011;14307;51.718;8.938;2022-10-18T16:01:53;32.03;;;27.65;;
26690;SDS011;14307;51.718;8.938;2022-10-18T16:06:57;30.95;;;27.42;;
26690;SDS011;14307;51.718;8.938;2022-10-18T16:09:25;30.45;;;27.38;;
26690;SDS011;14307;51.718;8.938;2022-10-18T16:11:53;29.98;;;26.98;;
26690;SDS011;14307;51.718;8.938;2022-10-18T16:14:23;33.92;;;27.98;;
26690;SDS011;14307;51.718;8.938;2022-10-18T16:16:54;33.47;;;28.50;;
26690;SDS011;14307;51.718;8.938;2022-10-18T16:19:28;30.70;;;25.45;;
26690;SDS011;14307;51.718;8.938;2022-10-18T16:21:55;28.92;;;25.88;;
26690;SDS011;14307;51.718;8.938;2022-10-18T16:24:26;35.15;;;27.33;;
26690;SDS011;14307;51.718;8.938;2022-10-18T16:26:53;29.95;;;26.75;;
26690;SDS011;14307;51.718;8.938;2022-10-18T16:29:21;29.48;;;26.50;;
26690;SDS011;14307;51.718;8.938;2022-10-18T16:31:53;32.60;;;28.17;;
26690;SDS011;14307;51.718;8.938;2022-10-18T16:34:24;32.55;;;26.95;;
26690;SDS011;14307;51.718;8.938;2022-10-18T16:36:52;33.63;;;26.30;;
26690;SDS011;14307;51.718;8.938;2022-10-18T16:39:19;33.33;;;25.73;;
26690;SDS011;14307;51.718;8.938;2022-10-18T16:41:47;34.05;;;25.23;;
26690;SDS011;14307;51.718;8.938;2022-10-18T16:44:14;30.05;;;24.75;;
26690;SDS011;14307;51.718;8.938;2022-10-18T16:46:41;28.73;;;22.88;;
26690;SDS011;14307;51.718;8.938;2022-10-18T16:49:18;29.02;;;24.63;;
26690;SDS011;14307;51.718;8.938;2022-10-18T16:51:49;37.60;;;26.52;;
26690;SDS011;14307;51.718;8.938;2022-10-18T16:54:16;35.80;;;27.67;;
26690;SDS011;14307;51.718;8.938;2022-10-18T16:56:43;34.63;;;27.13;;
26690;SDS011;14307;51.718;8.938;2022-10-18T16:59:24;39.20;;;29.10;;
26690;SDS011;14307;51.718;8.938;2022-10-18T17:01:53;38.67;;;28.33;;
26690;SDS011;14307;51.718;8.938;2022-10-18T17:04:20;40.30;;;29.80;;
26690;SDS011;14307;51.718;8.938;2022-10-18T17:06:46;43.80;;;29.15;;
26690;SDS011;14307;51.718;8.938;2022-10-18T17:09:14;41.85;;;31.70;;
26690;SDS011;14307;51.718;8.938;2022-10-18T17:11:41;44.80;;;32.85;;
26690;SDS011;14307;51.718;8.938;2022-10-18T17:14:08;60.05;;;47.80;;
26690;SDS011;14307;51.718;8.938;2022-10-18T17:16:35;43.72;;;34.38;;
26690;SDS011;14307;51.718;8.938;2022-10-18T17:19:05;42.45;;;29.73;;
26690;SDS011;14307;51.718;8.938;2022-10-18T17:21:32;42.90;;;28.77;;
26690;SDS011;14307;51.718;8.938;2022-10-18T17:23:59;41.92;;;30.33;;
26690;SDS011;14307;51.718;8.938;2022-10-18T17:26:28;44.13;;;29.40;;
26690;SDS011;14307;51.718;8.938;2022-10-18T17:28:57;47.63;;;28.90;;